createdAt,value
2018-10-19T06:31:29.318Z,114.37
2018-10-19T06:33:57.502Z,131.67
2018-10-19T06:36:25.970Z,136.90
2018-10-19T06:38:54.154Z,127.87
2018-10-19T06:41:22.582Z,144.63
2018-10-19T06:43:50.806Z,162.68
2018-10-19T06:46:19.014Z,161.80
2018-10-19T06:48:47.239Z,166.82
2018-10-19T06:51:15.427Z,178.30
2018-10-19T06:53:43.626Z,180.63
2018-10-19T06:56:17.360Z,173.13
2018-10-19T06:58:45.569Z,176.95
2018-10-19T07:01:13.780Z,199.70
2018-10-19T07:03:42.024Z,196.78
2018-10-19T07:06:10.309Z,188.20
2018-10-19T07:08:38.414Z,203.37
2018-10-19T07:11:06.681Z,175.35
2018-10-19T07:13:34.854Z,173.50
2018-10-19T07:16:03.115Z,200.90
2018-10-19T07:18:31.275Z,198.80
2018-10-19T07:20:59.479Z,192.72
2018-10-19T07:23:27.678Z,213.92
2018-10-19T07:25:55.949Z,214.82
2018-10-19T07:28:24.094Z,228.22
2018-10-19T07:30:52.374Z,188.63
2018-10-19T07:33:20.567Z,225.28
2018-10-19T07:35:48.762Z,226.40
2018-10-19T07:38:17.105Z,225.03
2018-10-19T07:40:45.162Z,232.93
2018-10-19T07:43:13.354Z,204.50
2018-10-19T07:45:41.562Z,203.42
2018-10-19T07:48:09.984Z,197.10
2018-10-19T07:50:37.934Z,196.15
2018-10-19T07:53:06.206Z,182.93
2018-10-19T07:55:34.349Z,185.90
2018-10-19T07:58:02.558Z,167.55
2018-10-19T08:00:30.824Z,173.85
2018-10-19T08:02:58.978Z,163.55
2018-10-19T08:05:27.174Z,175.45
2018-10-19T08:07:55.496Z,162.80
2018-10-19T08:10:23.638Z,161.47
2018-10-19T08:12:51.862Z,168.85
2018-10-19T08:15:20.062Z,166.25
2018-10-19T08:17:48.278Z,167.82
2018-10-19T08:20:16.497Z,171.77
2018-10-19T08:22:44.678Z,155.72
2018-10-19T08:25:12.891Z,156.20
2018-10-19T08:27:41.086Z,149.03
2018-10-19T08:30:09.270Z,151.17
2018-10-19T08:32:37.483Z,156.77
2018-10-19T08:35:06.305Z,153.87
2018-10-19T08:37:34.554Z,157.18
2018-10-19T08:40:02.683Z,153.32
2018-10-19T08:42:30.894Z,150.78
2018-10-19T08:44:59.065Z,147.40
2018-10-19T08:47:27.248Z,136.33
2018-10-19T08:49:55.410Z,131.23
2018-10-19T08:52:23.571Z,139.97
2018-10-19T08:54:52.107Z,126.57
2018-10-19T08:57:20.235Z,135.97
2018-10-19T08:59:48.418Z,138.30
2018-10-19T09:02:16.901Z,136.23
2018-10-19T09:04:45.105Z,131.40
2018-10-19T09:07:13.284Z,145.90
2018-10-19T09:09:41.438Z,140.47
2018-10-19T11:20:12.234Z,112.65
2018-10-19T11:22:40.411Z,109.85
2018-10-19T11:25:08.761Z,112.27
2018-10-19T11:27:37.070Z,111.27
2018-10-19T11:30:06.458Z,116.30
2018-10-19T11:32:34.634Z,108.97
2018-10-19T11:35:02.814Z,115.23
2018-10-19T11:37:31.039Z,105.80
2018-10-19T11:40:10.637Z,111.30
2018-10-19T11:42:38.767Z,115.07
2018-10-19T11:45:07.278Z,105.93
2018-10-19T11:47:35.442Z,107.35
2018-10-19T11:50:03.655Z,98.43
2018-10-19T11:52:31.834Z,102.02
2018-10-19T11:55:00.050Z,103.95
2018-10-19T11:57:28.190Z,109.80
2018-10-19T11:59:56.398Z,100.20
2018-10-19T12:02:24.562Z,104.72
2018-10-19T12:04:52.730Z,100.35
2018-10-19T12:07:20.891Z,103.17
2018-10-19T12:09:49.134Z,101.58
2018-10-19T12:12:17.303Z,96.20
2018-10-19T12:14:45.483Z,105.45
2018-10-19T12:17:13.666Z,103.30
2018-10-19T12:19:41.834Z,101.55
2018-10-19T12:22:10.006Z,96.03
2018-10-19T12:24:38.251Z,102.40
2018-10-19T12:27:06.516Z,102.70
2018-10-19T12:29:34.606Z,99.28
2018-10-19T12:32:02.790Z,90.50
2018-10-19T12:34:30.971Z,89.70
2018-10-19T12:36:59.141Z,89.47
2018-10-19T12:39:27.329Z,95.37
2018-10-19T12:41:55.513Z,91.50
2018-10-19T12:44:23.691Z,86.75
2018-10-19T12:47:03.363Z,85.85
2018-10-19T12:49:31.538Z,85.17
2018-10-19T12:51:59.731Z,87.65
2018-10-19T12:54:27.978Z,97.12
2018-10-19T12:56:56.192Z,91.92
2018-10-19T12:59:24.341Z,94.77
2018-10-19T13:01:52.497Z,89.40
2018-10-19T13:04:20.687Z,87.45
2018-10-19T13:06:48.858Z,85.25
2018-10-19T13:09:17.145Z,86.22
2018-10-19T13:11:45.197Z,86.32
2018-10-19T13:14:13.382Z,78.57
2018-10-19T13:16:41.542Z,89.70
2018-10-19T13:19:09.756Z,85.42
2018-10-19T13:21:37.904Z,91.15
2018-10-19T13:24:06.141Z,85.35
2018-10-19T13:26:34.298Z,91.00
2018-10-19T13:29:02.456Z,84.70
2018-10-19T13:31:30.624Z,94.33
2018-10-19T13:33:58.778Z,88.15
2018-10-19T13:36:26.954Z,87.92
2018-10-19T13:38:55.199Z,90.87
2018-10-19T13:41:23.328Z,89.58
2018-10-19T13:43:51.582Z,87.47
2018-10-19T13:46:19.776Z,87.45
2018-10-19T13:48:47.954Z,85.83
2018-10-19T13:51:16.201Z,88.35
2018-10-19T13:53:44.342Z,85.45
2018-10-19T13:56:12.526Z,92.37
2018-10-19T13:58:40.711Z,117.55
2018-10-19T14:01:08.900Z,91.90
2018-10-19T14:03:37.066Z,93.45
2018-10-19T14:06:05.329Z,91.90
2018-10-19T14:08:33.527Z,87.90
2018-10-19T14:11:01.771Z,93.95
2018-10-19T14:13:29.910Z,87.10
2018-10-19T14:15:58.118Z,84.30
2018-10-19T14:18:26.666Z,73.33
2018-10-19T14:20:54.852Z,85.00
2018-10-19T14:23:23.018Z,82.70
2018-10-19T14:25:51.206Z,82.62
2018-10-19T14:28:19.398Z,81.55
2018-10-19T14:30:47.576Z,82.00
2018-10-19T14:33:15.839Z,84.13
2018-10-19T14:35:43.934Z,85.53
2018-10-19T14:38:12.105Z,105.12
2018-10-19T14:40:40.293Z,90.03
2018-10-19T14:43:08.505Z,91.30
2018-10-19T14:45:36.677Z,82.72
2018-10-19T14:48:04.870Z,76.75
2018-10-19T14:50:33.033Z,86.80
2018-10-19T14:53:01.208Z,78.70
2018-10-19T14:55:29.359Z,85.60
2018-10-19T14:57:57.539Z,77.78
2018-10-19T15:00:25.730Z,80.47
2018-10-19T15:02:53.904Z,85.35
2018-10-19T15:05:22.058Z,76.40
2018-10-19T15:07:50.239Z,77.10
2018-10-19T15:10:21.832Z,80.45
2018-10-19T15:12:49.889Z,81.53
2018-10-19T15:15:20.442Z,99.72
2018-10-19T15:17:48.629Z,80.28
2018-10-19T15:20:17.265Z,78.42
2018-10-19T15:22:45.680Z,78.28
2018-10-19T15:25:13.918Z,80.80
2018-10-19T15:27:43.418Z,82.62
2018-10-19T15:30:13.880Z,77.13
2018-10-19T15:32:42.090Z,90.97
2018-10-19T15:35:10.465Z,71.90
2018-10-19T15:37:38.638Z,76.33
2018-10-19T15:40:07.794Z,76.42
2018-10-19T15:42:35.997Z,78.90
2018-10-19T15:45:04.692Z,79.27
2018-10-19T15:47:33.543Z,87.55
2018-10-19T15:50:01.745Z,87.33
2018-10-19T15:52:29.975Z,87.10
2018-10-19T15:54:58.197Z,79.47
2018-10-19T15:57:26.466Z,86.33
2018-10-19T15:59:54.634Z,71.22
2018-10-19T16:02:22.823Z,71.72
2018-10-19T16:04:51.002Z,63.78
2018-10-19T16:07:19.513Z,64.27
2018-10-19T16:09:48.117Z,60.38
2018-10-19T16:12:16.360Z,59.83
2018-10-19T16:14:44.506Z,61.45
2018-10-19T16:17:12.710Z,61.80
2018-10-19T16:19:41.160Z,61.98
2018-10-19T16:22:09.401Z,62.30
2018-10-19T16:24:37.607Z,58.73
2018-10-19T16:27:05.892Z,56.10
2018-10-19T16:29:33.986Z,57.43
2018-10-19T16:32:02.174Z,69.93
2018-10-19T16:34:30.354Z,67.58
2018-10-19T16:36:58.550Z,66.28
2018-10-19T16:39:26.726Z,62.08
2018-10-19T16:41:54.961Z,56.63
2018-10-19T16:44:23.093Z,64.87
2018-10-19T16:46:51.283Z,65.00
2018-10-19T16:49:19.499Z,60.35
2018-10-19T16:51:47.702Z,68.95
2018-10-19T16:54:15.934Z,69.55
2018-10-19T16:56:44.114Z,61.92
2018-10-19T16:59:12.300Z,57.30
2018-10-19T17:01:40.483Z,67.10
2018-10-19T17:04:08.965Z,64.43
2018-10-19T17:06:37.082Z,60.20
2018-10-19T17:09:08.999Z,62.37
2018-10-19T17:11:37.202Z,79.92
2018-10-19T17:14:05.386Z,66.17
2018-10-19T17:16:33.567Z,66.82
2018-10-19T17:19:01.743Z,67.30
2018-10-19T17:21:29.922Z,68.97
2018-10-19T17:23:58.212Z,70.72
2018-10-19T17:26:26.354Z,68.95
2018-10-19T17:28:54.638Z,67.72
2018-10-19T17:31:22.890Z,71.67
2018-10-19T17:33:51.143Z,66.35
2018-10-19T17:36:19.231Z,63.90
2018-10-19T17:38:47.398Z,60.03
2018-10-19T17:41:15.655Z,67.23
2018-10-19T17:43:43.778Z,66.13
2018-10-19T17:46:11.958Z,70.20
2018-10-19T17:48:40.130Z,61.23
2018-10-19T17:51:08.356Z,86.67
2018-10-19T17:53:36.518Z,63.67
2018-10-19T17:56:04.930Z,63.57
2018-10-19T18:08:23.094Z,58.70
2018-10-19T18:10:51.250Z,66.83
2018-10-19T18:13:19.422Z,63.60
2018-10-19T18:15:47.678Z,63.67
2018-10-19T18:18:15.792Z,60.73
2018-10-19T18:20:43.970Z,64.23
2018-10-19T18:23:12.296Z,66.25
2018-10-19T18:25:40.346Z,74.55
2018-10-19T18:28:08.549Z,63.17
2018-10-19T18:30:36.750Z,71.67
2018-10-19T18:33:05.358Z,70.60
2018-10-19T18:35:33.536Z,65.25
2018-10-19T18:38:01.786Z,70.10
2018-10-19T18:40:29.951Z,66.20
2018-10-19T18:42:58.154Z,70.60
2018-10-19T18:45:26.658Z,67.75
2018-10-19T18:47:54.844Z,62.70
2018-10-19T18:50:23.083Z,62.67
2018-10-19T18:52:51.245Z,67.80
2018-10-19T18:55:19.492Z,62.05
2018-10-19T18:57:47.578Z,61.28
2018-10-19T19:00:15.730Z,58.40
2018-10-19T19:02:43.897Z,62.63
2018-10-19T19:05:12.117Z,57.90
2018-10-19T19:07:40.298Z,60.47
2018-10-19T19:10:13.770Z,56.80
2018-10-19T19:12:41.958Z,60.87
2018-10-19T19:15:10.881Z,66.77
2018-10-19T19:17:39.054Z,59.08
2018-10-19T19:20:13.284Z,59.55
2018-10-19T19:22:41.898Z,55.10
2018-10-19T19:25:15.350Z,64.00
2018-10-19T19:27:43.581Z,63.60
2018-10-19T19:30:11.752Z,61.28
2018-10-19T19:32:44.123Z,62.27
2018-10-19T19:35:12.417Z,60.78
2018-10-19T19:37:40.522Z,60.43
2018-10-19T19:40:08.673Z,59.40
2018-10-19T19:42:43.534Z,65.90
2018-10-19T19:45:11.778Z,57.45
2018-10-19T19:47:45.338Z,57.70
2018-10-19T19:50:13.527Z,53.03
2018-10-19T19:52:41.725Z,55.03
2018-10-19T19:55:09.928Z,56.60
2018-10-19T19:57:38.106Z,59.90
2018-10-19T20:00:06.610Z,59.45
2018-10-19T20:02:34.854Z,58.70
2018-10-19T20:05:03.328Z,60.60
2018-10-19T20:07:31.403Z,58.70
2018-10-19T20:09:59.888Z,62.77
2018-10-19T20:12:28.083Z,55.73
2018-10-19T20:14:56.382Z,52.25
2018-10-19T20:17:24.947Z,50.05
2018-10-19T20:19:53.227Z,53.87
2018-10-19T20:22:21.399Z,50.20
2018-10-19T20:24:49.622Z,54.93
2018-10-19T20:27:17.818Z,53.10
2018-10-19T20:29:46.026Z,57.80
2018-10-19T20:32:14.260Z,50.65
2018-10-19T20:34:42.410Z,50.45
2018-10-19T20:37:10.705Z,49.90
2018-10-19T20:39:38.882Z,52.93
2018-10-19T20:42:07.098Z,57.27
2018-10-19T20:44:35.282Z,56.00
2018-10-19T20:47:03.458Z,53.20
2018-10-19T20:49:31.630Z,51.00
2018-10-19T20:51:59.818Z,53.57
2018-10-19T20:54:28.003Z,49.17
2018-10-19T20:56:56.178Z,49.50
2018-10-19T20:59:24.374Z,46.57
2018-10-19T21:01:52.541Z,50.15
2018-10-19T21:04:20.722Z,49.25
2018-10-19T21:06:48.941Z,57.43
2018-10-19T21:09:17.139Z,55.03
2018-10-19T21:11:45.329Z,57.10
2018-10-19T21:14:13.593Z,61.88
2018-10-19T21:16:41.730Z,59.88
2018-10-19T21:19:10.041Z,64.85
2018-10-19T21:21:38.118Z,64.37
2018-10-19T21:24:06.295Z,65.42
2018-10-19T21:26:34.502Z,63.00
2018-10-19T21:29:02.710Z,55.73
2018-10-19T21:31:30.958Z,58.13
2018-10-19T21:33:59.140Z,59.48
2018-10-19T21:36:27.321Z,63.42
2018-10-19T21:38:55.502Z,75.45
2018-10-19T21:41:23.661Z,74.90
2018-10-19T21:43:51.846Z,65.10
2018-10-19T21:46:20.014Z,66.70
2018-10-19T21:48:48.182Z,64.90
2018-10-19T21:51:16.333Z,57.10
2018-10-19T21:53:44.478Z,49.50
2018-10-19T21:56:12.776Z,43.15
2018-10-19T21:58:40.815Z,44.95
2018-10-19T22:01:08.993Z,51.23
2018-10-19T22:03:37.153Z,53.00
2018-10-19T22:06:05.354Z,61.08
2018-10-19T22:08:33.561Z,55.23
2018-10-19T22:11:01.666Z,61.33
2018-10-19T22:13:29.814Z,51.70
2018-10-19T22:15:57.970Z,49.73
2018-10-19T22:18:26.126Z,63.43
2018-10-19T22:20:54.274Z,60.17
2018-10-19T22:23:22.494Z,61.45
2018-10-19T22:25:50.586Z,62.33
2018-10-19T22:28:18.750Z,55.20
2018-10-19T22:30:46.964Z,56.08
2018-10-19T22:33:15.129Z,62.08
2018-10-19T22:35:43.294Z,48.83
2018-10-19T22:38:11.457Z,54.25
2018-10-19T22:40:39.610Z,45.88
2018-10-19T22:43:07.837Z,47.08
2018-10-19T22:45:36.038Z,45.75
2018-10-19T22:48:04.190Z,53.38
2018-10-19T22:50:32.350Z,54.77
2018-10-19T22:53:00.542Z,55.63
2018-10-19T22:55:28.666Z,58.20
2018-10-19T22:57:56.882Z,52.60
2018-10-19T23:00:25.027Z,59.50
2018-10-19T23:02:53.210Z,63.35
2018-10-19T23:05:21.398Z,56.68
2018-10-19T23:07:49.614Z,53.23
2018-10-19T23:10:17.769Z,51.15
2018-10-19T23:12:45.966Z,59.65
2018-10-19T23:15:14.129Z,50.25
2018-10-19T23:17:42.290Z,51.28
2018-10-19T23:20:10.504Z,53.35
2018-10-19T23:22:38.665Z,47.45
2018-10-19T23:25:07.269Z,52.95
2018-10-19T23:27:35.370Z,48.53
2018-10-19T23:30:03.520Z,53.13
2018-10-19T23:32:31.686Z,54.15
2018-10-19T23:34:59.894Z,44.73
2018-10-19T23:37:28.121Z,35.95
2018-10-19T23:39:56.274Z,41.68
2018-10-19T23:42:24.443Z,39.63
2018-10-19T23:44:52.605Z,44.88
2018-10-19T23:47:20.802Z,46.75
2018-10-19T23:49:48.966Z,39.48
2018-10-19T23:52:17.146Z,44.35
2018-10-19T23:54:45.306Z,49.40
2018-10-19T23:57:13.466Z,51.35
2018-10-19T23:59:41.610Z,47.00
